Time;durP1;ratioP1;P1;durP2;ratioP2;P2;SDS_P1;SDS_P2;PMS_P1;PMS_P2;Temp;Humidity;BMP_temperature;BMP_pressure;BME280_temperature;BME280_humidity;BME280_pressure;Samples;Min_cycle;Max_cycle;Signal;HPM_P1;HPM_P2
2023/10/19 00:01:52;;;;;;;42.35;38.75;;;;;;;19.67;42.51;95132.50;6209835;28;109486;-72
2023/10/19 00:04:55;;;;;;;41.60;38.00;;;;;;;19.68;42.47;95134.88;6210480;28;109208;-72
2023/10/19 00:07:59;;;;;;;41.63;38.03;;;;;;;19.66;42.65;95122.97;6207693;28;110348;-72
2023/10/19 00:11:08;;;;;;;43.33;39.63;;;;;;;19.65;42.65;95130.09;6196335;27;109432;-68
2023/10/19 00:14:15;;;;;;;40.37;36.90;;;;;;;19.66;42.48;95121.09;6210475;28;109398;-68
2023/10/19 00:17:21;;;;;;;42.03;38.53;;;;;;;19.65;42.47;95111.53;6207422;28;109303;-68
2023/10/19 00:20:37;;;;;;;42.47;38.97;;;;;;;19.65;42.50;95114.19;6196682;28;109226;-68
2023/10/19 00:23:40;;;;;;;42.65;38.95;;;;;;;19.66;42.54;95107.81;6208160;28;109420;-68
2023/10/19 00:26:44;;;;;;;41.60;38.20;;;;;;;19.64;42.72;95101.19;6209266;28;109637;-66
2023/10/19 00:29:55;;;;;;;42.15;38.55;;;;;;;19.63;42.85;95097.75;6191321;28;110146;-68
2023/10/19 00:33:03;;;;;;;41.23;37.73;;;;;;;19.65;42.52;95103.56;6196414;27;109477;-68
2023/10/19 00:36:08;;;;;;;42.97;39.42;;;;;;;19.62;42.48;95090.88;6207255;28;110282;-67
2023/10/19 00:39:20;;;;;;;41.28;37.88;;;;;;;19.62;42.50;95098.81;6189392;28;109048;-68
2023/10/19 00:42:26;;;;;;;41.97;38.47;;;;;;;19.62;42.67;95098.03;6206023;28;109086;-67
2023/10/19 00:45:31;;;;;;;43.13;39.53;;;;;;;19.62;42.45;95095.38;6202551;28;109368;-68
2023/10/19 00:48:39;;;;;;;43.40;39.70;;;;;;;19.61;42.64;95089.28;6205572;28;109469;-69
2023/10/19 00:51:54;;;;;;;44.00;40.40;;;;;;;19.62;42.52;95088.22;6206522;28;109348;-68
2023/10/19 00:54:58;;;;;;;42.30;38.80;;;;;;;19.63;42.45;95089.00;6198377;27;109125;-68
2023/10/19 00:58:09;;;;;;;41.60;38.10;;;;;;;19.61;42.57;95091.16;6208291;28;109549;-68
2023/10/19 01:01:13;;;;;;;42.50;39.00;;;;;;;19.61;42.63;95097.25;6206809;28;109819;-68
2023/10/19 01:04:22;;;;;;;43.50;39.80;;;;;;;19.61;42.56;95088.50;6206027;28;109066;-68
2023/10/19 01:07:28;;;;;;;43.20;39.60;;;;;;;19.60;42.41;95093.03;6196038;27;109561;-68
2023/10/19 01:10:32;;;;;;;42.75;39.15;;;;;;;19.59;42.63;95085.34;6207093;28;110013;-68
2023/10/19 01:13:35;;;;;;;43.60;39.85;;;;;;;19.60;42.32;95079.75;6207803;28;109475;-68
2023/10/19 01:16:38;;;;;;;45.42;41.72;;;;;;;19.58;42.64;95087.22;6202851;28;109270;-68
2023/10/19 01:19:43;;;;;;;46.15;42.35;;;;;;;19.59;42.34;95093.31;6201482;28;109589;-67
2023/10/19 01:23:06;;;;;;;44.13;40.33;;;;;;;19.61;42.63;95096.47;6206733;28;109616;-67
2023/10/19 01:26:10;;;;;;;46.13;42.23;;;;;;;19.59;42.50;95101.28;6204193;28;110376;-68
2023/10/19 01:29:16;;;;;;;44.87;41.07;;;;;;;19.58;42.30;95092.53;6192994;28;109383;-68
2023/10/19 01:32:19;;;;;;;46.83;42.72;;;;;;;19.60;42.56;95094.88;6204214;28;109807;-68
2023/10/19 01:35:23;;;;;;;45.45;41.65;;;;;;;19.57;42.56;95090.16;6206455;28;109351;-68
2023/10/19 01:38:30;;;;;;;45.47;41.58;;;;;;;19.57;42.30;95088.31;6199011;28;109507;-70
2023/10/19 01:41:34;;;;;;;46.08;42.38;;;;;;;19.57;42.48;95085.63;6195806;27;110328;-68
2023/10/19 01:44:37;;;;;;;47.55;43.65;;;;;;;19.59;42.47;95085.34;6205811;28;109221;-68
2023/10/19 01:47:42;;;;;;;46.08;42.20;;;;;;;19.58;42.46;95086.44;6205249;28;109707;-68
2023/10/19 01:50:45;;;;;;;48.00;44.00;;;;;;;19.54;42.52;95091.53;6201888;28;109152;-68
2023/10/19 01:53:49;;;;;;;48.23;44.13;;;;;;;19.56;42.64;95093.91;6200759;27;109540;-68
2023/10/19 01:56:54;;;;;;;47.40;43.30;;;;;;;19.56;42.49;95092.03;6208176;28;110177;-68
2023/10/19 01:59:57;;;;;;;47.70;43.60;;;;;;;19.55;42.69;95089.66;6207091;28;109486;-68
2023/10/19 02:03:00;;;;;;;49.40;45.30;;;;;;;19.55;42.61;95090.47;6196205;27;110250;-67
2023/10/19 02:06:16;;;;;;;47.90;43.80;;;;;;;19.52;42.57;95091.03;6207665;28;111796;-68
2023/10/19 02:09:26;;;;;;;49.55;45.35;;;;;;;19.50;42.65;95085.22;6207680;28;109175;-68
2023/10/19 02:12:30;;;;;;;48.57;44.47;;;;;;;19.52;42.42;95088.38;6213311;28;109347;-69
2023/10/19 02:15:34;;;;;;;45.33;41.42;;;;;;;19.54;42.63;95091.53;6195268;27;109420;-68
2023/10/19 02:18:38;;;;;;;46.90;43.00;;;;;;;19.52;42.64;95093.69;6206317;28;109312;-68
2023/10/19 02:21:40;;;;;;;44.93;41.00;;;;;;;19.51;42.40;95089.47;6206178;28;109369;-68
2023/10/19 02:24:45;;;;;;;44.13;40.42;;;;;;;19.56;42.32;95096.56;6201992;28;111355;-67
2023/10/19 02:27:48;;;;;;;42.40;38.70;;;;;;;19.54;42.61;95096.84;6200533;28;109756;-67
2023/10/19 02:30:51;;;;;;;45.28;41.47;;;;;;;19.51;42.74;95101.94;6205700;28;109256;-62
2023/10/19 02:33:59;;;;;;;43.97;40.27;;;;;;;19.53;42.53;95105.09;6205091;28;109255;-61
2023/10/19 02:37:03;;;;;;;43.57;39.87;;;;;;;19.53;42.64;95100.56;6196893;28;109989;-61
2023/10/19 02:40:18;;;;;;;41.42;38.03;;;;;;;19.50;42.49;95090.53;6206133;28;109882;-62
2023/10/19 02:43:20;;;;;;;42.30;38.70;;;;;;;19.50;42.67;95089.75;6209409;28;109206;-61
2023/10/19 02:46:23;;;;;;;41.07;37.37;;;;;;;19.49;42.54;95088.97;6208133;28;109227;-62
2023/10/19 02:49:29;;;;;;;40.47;36.97;;;;;;;19.48;42.51;95091.88;6193681;28;110298;-62
2023/10/19 02:52:32;;;;;;;41.08;37.58;;;;;;;19.49;42.58;95093.44;6209496;28;109510;-63
2023/10/19 02:55:37;;;;;;;41.58;38.08;;;;;;;19.48;42.89;95089.22;6209861;28;109131;-61
2023/10/19 02:58:43;;;;;;;42.00;38.40;;;;;;;19.50;42.30;95093.19;6206783;28;109138;-67
2023/10/19 03:01:46;;;;;;;41.30;37.80;;;;;;;19.53;42.44;95094.47;6194212;28;109162;-61
2023/10/19 03:04:49;;;;;;;40.67;37.20;;;;;;;19.53;42.57;95095.25;6209330;28;109183;-61
2023/10/19 03:07:52;;;;;;;41.00;37.60;;;;;;;19.52;42.42;95093.69;6208314;28;109126;-61
2023/10/19 03:11:04;;;;;;;41.37;37.77;;;;;;;19.51;42.58;95088.66;6199407;28;109271;-62
2023/10/19 03:14:08;;;;;;;38.70;35.40;;;;;;;19.51;42.84;95086.81;6209082;28;109856;-61
2023/10/19 03:17:10;;;;;;;36.60;33.30;;;;;;;19.52;42.74;95082.28;6204277;28;109297;-61
2023/10/19 03:20:16;;;;;;;34.58;31.60;;;;;;;19.53;42.97;95084.66;6209704;28;109080;-62
2023/10/19 03:23:20;;;;;;;38.45;35.25;;;;;;;19.54;42.75;95086.22;6198795;27;109187;-61
2023/10/19 03:26:30;;;;;;;39.80;36.50;;;;;;;19.51;43.46;95081.50;6208333;28;109372;-62
2023/10/19 03:29:38;;;;;;;40.00;36.55;;;;;;;19.51;43.14;95078.84;6210241;28;109233;-62
2023/10/19 03:32:41;;;;;;;38.95;35.75;;;;;;;19.54;43.19;95085.44;6210085;28;108939;-60
2023/10/19 03:35:45;;;;;;;38.20;35.00;;;;;;;19.54;43.33;95090.75;6198049;27;109135;-61
2023/10/19 03:38:49;;;;;;;36.55;33.55;;;;;;;19.51;43.48;95081.50;6208382;28;109565;-61
2023/10/19 03:41:54;;;;;;;35.37;32.47;;;;;;;19.51;43.24;95078.84;6217244;28;109414;-70
2023/10/19 03:44:57;;;;;;;35.78;32.80;;;;;;;19.48;43.77;95078.59;6200337;27;109938;-68
2023/10/19 03:48:06;;;;;;;33.90;31.20;;;;;;;19.46;43.50;95078.09;6209426;28;109104;-70
2023/10/19 03:51:12;;;;;;;32.35;29.48;;;;;;;19.46;43.51;95073.59;6210946;28;108901;-69
2023/10/19 03:54:22;;;;;;;32.03;29.43;;;;;;;19.44;43.64;95073.09;6209421;28;109148;-69
2023/10/19 03:57:29;;;;;;;30.58;27.98;;;;;;;19.47;43.94;95067.19;6197850;28;109468;-71
2023/10/19 04:00:33;;;;;;;30.17;27.48;;;;;;;19.48;43.85;95071.44;6204297;28;109940;-69
2023/10/19 04:03:36;;;;;;;28.60;26.00;;;;;;;19.50;43.62;95071.16;6207661;28;109509;-70
2023/10/19 04:06:40;;;;;;;29.42;26.73;;;;;;;19.61;43.72;95070.72;6209649;28;109133;-66
2023/10/19 04:09:57;;;;;;;23.08;21.08;;;;;;;19.59;43.32;95064.91;6200042;28;109113;-71
2023/10/19 04:13:02;;;;;;;16.30;14.90;;;;;;;19.41;41.98;95071.81;6211400;28;109329;-70
2023/10/19 04:16:08;;;;;;;16.30;14.70;;;;;;;19.38;41.91;95068.91;6208242;28;109199;-70
2023/10/19 04:19:12;;;;;;;19.70;18.00;;;;;;;19.46;42.69;95062.97;6198103;27;110777;-63
2023/10/19 04:22:22;;;;;;;19.37;17.67;;;;;;;19.36;43.00;95071.84;6209217;28;108870;-64
2023/10/19 04:25:27;;;;;;;18.67;17.08;;;;;;;19.35;43.06;95069.50;6209333;28;109019;-63
2023/10/19 04:28:38;;;;;;;18.53;16.87;;;;;;;19.25;43.01;95067.75;6209083;28;110269;-63
2023/10/19 04:31:49;;;;;;;16.08;14.68;;;;;;;19.22;43.41;95062.25;6197438;28;109676;-63
2023/10/19 04:34:52;;;;;;;17.23;15.82;;;;;;;19.22;43.13;95065.69;6208948;28;109363;-64
2023/10/19 04:37:56;;;;;;;16.80;15.37;;;;;;;19.21;43.11;95063.31;6208698;28;109327;-63
2023/10/19 04:41:10;;;;;;;15.77;14.47;;;;;;;19.19;43.06;95058.31;6204316;28;108936;-63
2023/10/19 04:44:15;;;;;;;17.42;15.93;;;;;;;19.21;43.16;95055.34;6203181;28;110121;-63
2023/10/19 04:47:18;;;;;;;16.45;15.05;;;;;;;19.17;42.95;95047.19;6208895;28;109665;-63
2023/10/19 04:50:21;;;;;;;15.90;14.50;;;;;;;19.12;43.08;95053.34;6208507;28;109074;-63
2023/10/19 04:53:25;;;;;;;16.20;14.80;;;;;;;19.20;42.72;95051.13;6198104;28;108830;-63
2023/10/19 04:56:28;;;;;;;15.73;14.32;;;;;;;19.15;42.77;95057.28;6209239;28;108679;-63
2023/10/19 04:59:33;;;;;;;15.32;14.02;;;;;;;19.10;43.15;95047.53;6184225;28;109078;-63
2023/10/19 05:02:36;;;;;;;14.32;13.13;;;;;;;19.14;42.87;95050.41;6193154;28;109479;-63
2023/10/19 05:05:40;;;;;;;14.40;13.20;;;;;;;19.08;42.90;95052.34;6197149;28;110386;-63
2023/10/19 05:08:43;;;;;;;14.60;13.20;;;;;;;19.07;42.69;95056.06;6209236;28;109967;-64
2023/10/19 05:11:46;;;;;;;14.93;13.57;;;;;;;19.08;42.86;95047.03;6208693;28;108822;-63
2023/10/19 05:14:50;;;;;;;13.70;12.50;;;;;;;19.12;42.58;95042.72;6208507;28;109429;-63
2023/10/19 05:17:54;;;;;;;13.05;11.95;;;;;;;19.04;42.71;95054.00;6198523;28;109350;-63
2023/10/19 05:20:57;;;;;;;14.20;13.00;;;;;;;19.05;42.82;95055.56;6207926;28;109384;-63
2023/10/19 05:24:02;;;;;;;13.45;12.25;;;;;;;19.12;42.52;95052.53;6208838;28;111030;-63
2023/10/19 05:27:05;;;;;;;13.45;12.35;;;;;;;19.05;42.60;95057.44;6200046;28;110089;-63
2023/10/19 05:30:12;;;;;;;13.10;12.00;;;;;;;19.08;42.74;95059.50;6207084;28;109128;-63
2023/10/19 05:33:15;;;;;;;12.90;11.80;;;;;;;19.07;42.47;95058.72;6196786;28;108945;-63
2023/10/19 05:36:19;;;;;;;13.00;11.90;;;;;;;19.08;42.58;95056.84;6208440;28;109031;-63
2023/10/19 05:39:27;;;;;;;12.20;11.20;;;;;;;19.04;42.65;95056.63;6196798;28;110391;-63
2023/10/19 05:42:31;;;;;;;13.30;12.10;;;;;;;19.12;42.41;95063.16;6208500;28;109130;-63
2023/10/19 05:45:36;;;;;;;12.20;11.20;;;;;;;19.13;42.31;95072.69;6183849;28;109720;-64
2023/10/19 05:48:43;;;;;;;12.23;11.13;;;;;;;19.11;42.46;95066.88;6199336;28;109524;-63
2023/10/19 05:51:46;;;;;;;11.90;10.80;;;;;;;19.14;42.15;95072.41;6196421;28;110676;-64
2023/10/19 05:54:50;;;;;;;11.80;10.80;;;;;;;19.17;42.14;95083.53;6207993;28;109238;-64
2023/10/19 05:57:53;;;;;;;11.80;10.77;;;;;;;19.18;42.16;95079.81;6208239;28;111131;-64
2023/10/19 06:01:00;;;;;;;11.20;10.30;;;;;;;19.24;41.92;95070.69;6202995;28;109099;-63
2023/10/19 06:04:05;;;;;;;11.25;10.25;;;;;;;19.23;42.10;95072.56;6204030;28;109310;-63
2023/10/19 06:07:08;;;;;;;12.15;11.05;;;;;;;19.24;42.02;95076.00;6207811;28;108840;-63
2023/10/19 06:10:20;;;;;;;11.40;10.40;;;;;;;19.27;41.90;95075.44;6208358;28;112356;-63
2023/10/19 06:13:24;;;;;;;11.07;10.10;;;;;;;19.28;41.83;95077.78;6197319;28;112501;-63
2023/10/19 06:16:28;;;;;;;11.35;10.35;;;;;;;19.27;41.94;95080.72;6210278;28;109682;-63
2023/10/19 06:19:32;;;;;;;11.13;10.13;;;;;;;19.28;42.02;95077.00;6212046;28;108862;-63
2023/10/19 06:22:36;;;;;;;10.38;9.48;;;;;;;19.29;42.23;95070.63;6210880;28;109586;-63
2023/10/19 06:25:42;;;;;;;10.77;9.88;;;;;;;19.30;41.92;95072.97;6201313;28;109188;-63
2023/10/19 06:28:46;;;;;;;10.75;9.85;;;;;;;19.26;41.80;95074.63;6212000;28;110105;-63
2023/10/19 06:31:50;;;;;;;11.13;10.10;;;;;;;19.36;41.79;95084.34;6212397;28;109405;-65
2023/10/19 06:34:54;;;;;;;10.90;10.00;;;;;;;19.37;41.74;95072.66;6206642;28;109164;-63
2023/10/19 06:37:58;;;;;;;10.88;9.88;;;;;;;19.41;41.68;95068.38;6206249;28;109138;-63
2023/10/19 06:41:02;;;;;;;11.10;10.20;;;;;;;19.45;41.66;95076.53;6210656;28;109179;-62
2023/10/19 06:44:06;;;;;;;11.45;10.50;;;;;;;19.47;41.68;95069.06;6212399;28;110693;-63
2023/10/19 06:47:13;;;;;;;11.20;10.20;;;;;;;19.46;41.79;95065.63;6200103;28;109216;-62
2023/10/19 06:50:21;;;;;;;11.23;10.25;;;;;;;19.49;41.88;95073.03;6212229;28;109171;-64
2023/10/19 06:53:24;;;;;;;11.27;10.27;;;;;;;19.50;41.70;95077.28;6210508;28;109479;-62
2023/10/19 06:56:28;;;;;;;11.60;10.60;;;;;;;19.50;41.85;95081.78;6211210;28;109410;-62
2023/10/19 06:59:33;;;;;;;11.20;10.20;;;;;;;19.51;41.78;95080.72;6200718;28;110364;-62
2023/10/19 07:02:38;;;;;;;11.43;10.50;;;;;;;19.48;41.94;95071.44;6211152;28;109143;-62
2023/10/19 07:05:41;;;;;;;10.63;9.68;;;;;;;19.54;42.16;95069.50;6211053;28;109229;-62
2023/10/19 07:08:46;;;;;;;10.70;9.80;;;;;;;19.60;42.04;95063.81;6206392;28;110784;-67
2023/10/19 07:11:52;;;;;;;10.60;9.70;;;;;;;19.56;42.03;95049.56;6205253;28;109138;-61
2023/10/19 07:15:00;;;;;;;10.10;9.20;;;;;;;19.58;41.92;95055.38;6211214;28;109008;-60
2023/10/19 07:18:06;;;;;;;10.77;9.80;;;;;;;19.57;41.96;95048.47;6210415;28;109145;-61
2023/10/19 07:21:11;;;;;;;10.50;9.60;;;;;;;19.62;42.04;95055.56;6199283;28;110395;-61
2023/10/19 07:24:14;;;;;;;11.10;10.20;;;;;;;19.65;41.75;95057.66;6209952;28;110085;-61
2023/10/19 07:27:19;;;;;;;11.48;10.38;;;;;;;19.65;41.73;95057.66;6209699;28;109284;-60
2023/10/19 07:30:41;;;;;;;10.88;9.98;;;;;;;19.66;41.70;95053.94;6210422;28;109144;-61
2023/10/19 07:33:46;;;;;;;9.77;8.97;;;;;;;19.66;41.62;95061.91;6199375;28;109128;-61
2023/10/19 07:36:50;;;;;;;10.10;9.30;;;;;;;19.67;41.65;95058.97;6210141;28;109249;-60
2023/10/19 07:39:56;;;;;;;10.73;9.82;;;;;;;19.68;41.76;95054.44;6209770;28;109063;-60
2023/10/19 07:43:00;;;;;;;10.20;9.30;;;;;;;19.74;41.41;95063.88;6205638;28;109810;-60
2023/10/19 07:46:03;;;;;;;9.35;8.55;;;;;;;19.79;41.58;95063.78;6204893;28;111082;-60
2023/10/19 07:49:08;;;;;;;9.77;8.97;;;;;;;19.83;41.63;95066.69;6210332;28;110184;-61
2023/10/19 07:52:11;;;;;;;9.68;8.85;;;;;;;19.81;41.54;95064.28;6210104;28;110028;-60
2023/10/19 07:55:15;;;;;;;10.20;9.40;;;;;;;19.82;41.72;95067.72;6198291;28;109083;-60
2023/10/19 07:58:18;;;;;;;8.95;8.15;;;;;;;19.79;41.53;95077.06;6209524;28;109118;-60
2023/10/19 08:01:22;;;;;;;9.20;8.40;;;;;;;19.88;41.43;95058.63;6209331;28;109391;-59
2023/10/19 08:04:28;;;;;;;9.80;8.90;;;;;;;19.96;41.69;95061.38;6209866;28;109074;-60
2023/10/19 08:07:31;;;;;;;9.05;8.27;;;;;;;20.04;41.25;95065.25;6198329;28;108792;-60
2023/10/19 08:10:35;;;;;;;9.60;8.55;;;;;;;20.12;40.95;95061.13;6209867;28;110099;-60
2023/10/19 08:13:39;;;;;;;9.65;8.85;;;;;;;20.16;40.99;95075.41;6209484;28;108998;-60
2023/10/19 08:16:43;;;;;;;9.80;9.00;;;;;;;20.19;41.10;95075.63;6207959;28;109353;-63
2023/10/19 08:19:48;;;;;;;9.40;8.60;;;;;;;20.25;41.03;95076.34;6202073;28;109032;-63
2023/10/19 08:22:52;;;;;;;9.30;8.50;;;;;;;20.27;41.00;95059.03;6209360;28;108732;-63
2023/10/19 08:25:56;;;;;;;9.60;8.80;;;;;;;20.30;40.90;95061.09;6208864;28;110833;-63
2023/10/19 08:29:00;;;;;;;9.68;8.88;;;;;;;20.34;40.84;95060.53;6198336;28;109065;-62
2023/10/19 08:32:03;;;;;;;8.70;8.00;;;;;;;20.34;40.67;95058.66;6208777;28;109114;-62
2023/10/19 08:35:11;;;;;;;9.77;8.97;;;;;;;20.37;40.93;95065.25;6209442;28;109481;-62
2023/10/19 08:38:14;;;;;;;9.00;8.20;;;;;;;20.38;40.75;95069.50;6208828;28;109010;-63
2023/10/19 08:41:18;;;;;;;7.90;7.20;;;;;;;20.39;40.80;95063.88;6197924;28;111375;-63
2023/10/19 08:44:22;;;;;;;8.10;7.38;;;;;;;20.38;40.70;95070.28;6196856;28;109271;-63
2023/10/19 08:47:25;;;;;;;8.40;7.70;;;;;;;20.38;40.69;95061.50;6209104;28;109127;-62
2023/10/19 08:50:31;;;;;;;9.25;8.48;;;;;;;20.40;40.57;95065.44;6209307;28;109705;-62
2023/10/19 08:53:40;;;;;;;8.48;7.78;;;;;;;20.40;40.79;95065.44;6199602;28;109569;-62
2023/10/19 08:56:44;;;;;;;8.10;7.40;;;;;;;20.37;41.14;95065.25;6207901;28;109335;-62
2023/10/19 08:59:48;;;;;;;9.20;8.40;;;;;;;20.36;40.89;95066.34;6208758;28;109750;-62
2023/10/19 09:02:52;;;;;;;8.30;7.70;;;;;;;20.33;40.93;95059.72;6201659;28;109646;-62
2023/10/19 09:05:57;;;;;;;7.97;7.28;;;;;;;20.34;40.78;95066.63;6207244;28;109145;-63
2023/10/19 09:09:00;;;;;;;8.35;7.72;;;;;;;20.35;40.84;95062.09;6209090;28;110423;-63
2023/10/19 09:12:09;;;;;;;8.43;7.73;;;;;;;20.35;40.72;95062.09;6208386;28;109037;-63
2023/10/19 09:15:23;;;;;;;8.48;7.78;;;;;;;20.37;40.67;95051.97;6198932;28;110769;-63
2023/10/19 09:18:28;;;;;;;8.50;7.70;;;;;;;20.37;40.90;95039.47;6208409;28;110249;-63
2023/10/19 09:21:35;;;;;;;7.95;7.28;;;;;;;20.39;40.66;95045.28;6208623;28;112618;-63
2023/10/19 09:24:39;;;;;;;8.30;7.50;;;;;;;20.40;40.79;95036.22;6183794;28;110664;-63
2023/10/19 09:27:43;;;;;;;7.90;7.20;;;;;;;20.43;40.80;95038.28;6180706;28;109300;-63
2023/10/19 09:30:48;;;;;;;8.27;7.57;;;;;;;20.46;40.55;95028.94;6208884;28;109754;-61
2023/10/19 09:33:53;;;;;;;7.90;7.20;;;;;;;20.47;40.64;95014.56;6208508;28;108905;-61
2023/10/19 09:36:57;;;;;;;7.53;6.90;;;;;;;20.50;40.36;95005.97;6200782;28;109250;-63
2023/10/19 09:40:04;;;;;;;7.73;7.03;;;;;;;20.49;40.58;95001.75;6207302;28;109221;-60
2023/10/19 09:43:16;;;;;;;7.50;6.90;;;;;;;20.45;40.69;94990.94;6208172;28;109424;-60
2023/10/19 09:46:23;;;;;;;7.23;6.63;;;;;;;20.43;40.65;94982.47;6208609;28;109546;-59
2023/10/19 09:49:28;;;;;;;6.90;6.30;;;;;;;20.40;40.71;94984.94;6197778;28;109957;-60
2023/10/19 09:52:33;;;;;;;7.00;6.40;;;;;;;20.37;40.75;94980.22;6212795;28;109137;-60
2023/10/19 09:55:41;;;;;;;7.82;7.15;;;;;;;20.32;40.89;94981.88;6212340;28;109225;-60
2023/10/19 09:58:48;;;;;;;7.28;6.68;;;;;;;20.28;40.70;94966.81;6211814;28;109643;-60
2023/10/19 10:02:06;;;;;;;7.40;6.80;;;;;;;20.26;40.96;94972.44;6201018;28;109192;-60
2023/10/19 10:05:47;;;;;;;8.10;7.40;;;;;;;20.33;40.88;94969.38;6213204;28;109004;-60
2023/10/19 10:08:52;;;;;;;7.93;7.22;;;;;;;20.31;40.82;94967.00;6212256;28;109188;-60
2023/10/19 10:11:56;;;;;;;7.25;6.65;;;;;;;20.29;41.18;94960.41;6200885;28;108894;-61
2023/10/19 10:15:03;;;;;;;7.00;6.40;;;;;;;20.25;41.38;94949.59;6204313;28;110636;-60
2023/10/19 10:18:14;;;;;;;7.30;6.60;;;;;;;20.22;41.23;94958.13;6212401;28;108948;-60
2023/10/19 10:21:21;;;;;;;7.28;6.68;;;;;;;20.20;41.24;94949.69;6233194;28;111532;-61
2023/10/19 10:24:27;;;;;;;6.90;6.30;;;;;;;20.19;41.29;94948.09;6206996;27;109826;-61
2023/10/19 10:27:30;;;;;;;7.23;6.63;;;;;;;20.17;41.14;94949.50;6211923;28;109144;-60
2023/10/19 10:30:33;;;;;;;7.32;6.72;;;;;;;20.17;41.30;94944.97;6211196;28;109306;-60
2023/10/19 10:33:41;;;;;;;7.20;6.60;;;;;;;20.16;41.39;94930.06;6206419;28;109133;-60
2023/10/19 10:37:02;;;;;;;7.00;6.40;;;;;;;20.19;41.07;94937.47;6208260;28;109113;-60
2023/10/19 10:40:09;;;;;;;7.00;6.40;;;;;;;20.19;41.20;94926.06;6211863;28;109499;-61
2023/10/19 10:43:13;;;;;;;6.60;6.00;;;;;;;20.19;41.20;94921.53;6211978;28;110270;-60
2023/10/19 10:46:16;;;;;;;7.30;6.60;;;;;;;20.20;41.24;94909.81;6200941;28;110660;-60
2023/10/19 10:49:21;;;;;;;7.20;6.60;;;;;;;20.22;41.01;94889.06;6211243;28;109127;-60
2023/10/19 10:52:26;;;;;;;6.35;5.85;;;;;;;20.23;41.28;94885.31;6211967;28;110589;-59
2023/10/19 10:55:32;;;;;;;6.90;6.30;;;;;;;20.25;41.05;94887.69;6212064;28;109852;-60
2023/10/19 10:58:35;;;;;;;7.10;6.50;;;;;;;20.24;41.11;94881.59;6201584;28;108916;-60
2023/10/19 11:01:39;;;;;;;6.50;5.90;;;;;;;20.25;41.02;94880.50;6209112;28;109338;-60
2023/10/19 11:04:45;;;;;;;7.10;6.50;;;;;;;20.25;40.99;94877.06;6211893;28;109584;-60
2023/10/19 11:08:07;;;;;;;6.80;6.30;;;;;;;20.25;40.95;94861.13;6204645;28;109184;-62
2023/10/19 11:11:12;;;;;;;6.68;6.18;;;;;;;20.25;41.02;94861.91;6211977;28;108995;-61
2023/10/19 11:14:16;;;;;;;6.70;6.10;;;;;;;20.25;41.14;94853.94;6211908;28;109099;-61
2023/10/19 11:17:19;;;;;;;6.90;6.30;;;;;;;20.25;41.02;94845.97;6211778;28;108884;-61
2023/10/19 11:20:24;;;;;;;6.75;6.15;;;;;;;20.24;40.94;94846.25;6176015;28;109094;-60
2023/10/19 11:23:38;;;;;;;7.20;6.50;;;;;;;20.25;40.89;94838.00;6195773;28;109373;-61
2023/10/19 11:26:44;;;;;;;6.70;6.15;;;;;;;20.25;41.14;94830.03;6211805;28;108852;-61
2023/10/19 11:29:56;;;;;;;6.80;6.20;;;;;;;20.24;41.05;94828.47;6211529;28;109415;-61
2023/10/19 11:33:01;;;;;;;6.30;5.80;;;;;;;20.22;41.05;94817.31;6205178;28;109071;-60
2023/10/19 11:36:05;;;;;;;6.33;5.73;;;;;;;20.23;41.05;94818.09;6212034;28;112243;-60
2023/10/19 11:39:12;;;;;;;6.90;6.30;;;;;;;20.30;41.11;94808.66;6210594;28;111119;-61
2023/10/19 11:42:18;;;;;;;6.80;6.20;;;;;;;20.37;41.79;94820.75;6201616;28;109457;-62
2023/10/19 11:45:23;;;;;;;6.70;6.10;;;;;;;20.36;41.80;94812.00;6211867;28;108954;-62
2023/10/19 11:48:26;;;;;;;6.70;6.13;;;;;;;20.37;41.72;94805.59;6211211;28;109102;-61
2023/10/19 11:51:31;;;;;;;6.60;6.10;;;;;;;20.31;41.25;94799.59;6211562;28;109349;-63
2023/10/19 11:54:34;;;;;;;6.78;6.18;;;;;;;20.25;41.33;94795.50;6200646;28;110173;-62
2023/10/19 11:57:43;;;;;;;6.15;5.65;;;;;;;20.22;41.52;94788.09;6211923;28;108859;-64
2023/10/19 12:00:46;;;;;;;6.82;6.22;;;;;;;20.20;41.42;94790.28;6211553;28;109355;-63
2023/10/19 12:03:51;;;;;;;6.95;6.35;;;;;;;20.19;41.46;94783.38;6212178;28;109100;-63
2023/10/19 12:06:55;;;;;;;6.53;5.93;;;;;;;20.18;41.51;94781.81;6203766;28;109284;-64
2023/10/19 12:09:58;;;;;;;6.80;6.20;;;;;;;20.16;41.47;94778.66;6211640;28;109580;-63
2023/10/19 12:13:05;;;;;;;9.25;8.45;;;;;;;20.14;41.57;94786.13;6213682;28;108886;-69
2023/10/19 12:16:12;;;;;;;13.23;12.13;;;;;;;20.04;42.38;94794.34;6181294;28;109372;-69
2023/10/19 12:19:18;;;;;;;11.73;10.73;;;;;;;19.84;43.52;94778.84;6203799;28;109090;-69
2023/10/19 12:22:22;;;;;;;11.07;10.07;;;;;;;19.84;43.17;94774.31;6216233;28;109013;-70
2023/10/19 12:25:29;;;;;;;10.70;9.70;;;;;;;19.80;43.77;94769.88;6217068;28;109408;-69
2023/10/19 12:28:47;;;;;;;9.50;8.60;;;;;;;19.81;43.62;94771.44;6204814;28;110785;-70
2023/10/19 12:31:52;;;;;;;9.70;8.80;;;;;;;19.85;43.63;94767.13;6216114;28;108825;-70
2023/10/19 12:34:57;;;;;;;9.27;8.30;;;;;;;19.89;43.96;94768.09;6216218;28;108981;-70
2023/10/19 12:38:01;;;;;;;7.65;7.03;;;;;;;19.73;43.55;94757.81;6214731;28;109184;-63
2023/10/19 12:41:04;;;;;;;8.70;7.80;;;;;;;19.78;43.55;94750.81;6208887;28;110078;-69
2023/10/19 12:44:12;;;;;;;8.20;7.50;;;;;;;19.83;43.49;94748.06;6220827;28;109024;-69
2023/10/19 12:47:17;;;;;;;7.93;7.22;;;;;;;19.77;43.86;94754.53;6231860;28;110022;-69
2023/10/19 12:50:23;;;;;;;8.40;7.60;;;;;;;19.80;43.77;94748.63;6204476;28;109252;-69
2023/10/19 12:53:27;;;;;;;7.50;6.80;;;;;;;19.83;43.31;94742.75;6215732;28;109133;-69
2023/10/19 12:56:33;;;;;;;7.70;7.00;;;;;;;19.87;43.12;94741.84;6216006;28;108881;-70
2023/10/19 12:59:38;;;;;;;7.80;7.20;;;;;;;19.91;43.06;94742.03;6215564;28;108542;-66
2023/10/19 13:02:42;;;;;;;7.82;7.13;;;;;;;19.92;43.33;94735.63;6202344;28;109407;-66
2023/10/19 13:05:46;;;;;;;7.20;6.60;;;;;;;19.94;43.30;94734.25;6211925;28;109353;-66
2023/10/19 13:08:50;;;;;;;7.63;6.93;;;;;;;19.96;42.88;94732.06;6213400;28;111572;-67
2023/10/19 13:11:54;;;;;;;7.90;7.10;;;;;;;19.97;43.08;94741.63;6213050;28;109117;-65
2023/10/19 13:14:59;;;;;;;7.15;6.45;;;;;;;19.98;42.93;94729.13;6211392;28;110034;-66
2023/10/19 13:18:05;;;;;;;8.30;7.60;;;;;;;19.98;43.13;94726.47;6213952;28;111606;-66
2023/10/19 13:21:11;;;;;;;7.60;7.00;;;;;;;19.98;43.27;94723.81;6213245;28;110542;-67
2023/10/19 13:24:16;;;;;;;8.17;7.37;;;;;;;19.98;43.16;94713.19;6204846;28;110191;-66
2023/10/19 13:27:19;;;;;;;7.65;6.95;;;;;;;19.96;43.24;94710.03;6212875;28;111625;-67
2023/10/19 13:30:24;;;;;;;8.48;7.68;;;;;;;19.98;43.29;94702.56;6212709;28;109682;-67
2023/10/19 13:33:29;;;;;;;8.50;7.80;;;;;;;19.97;43.33;94706.31;6212454;28;109771;-66
2023/10/19 13:36:33;;;;;;;8.60;7.80;;;;;;;19.96;43.40;94700.22;6201476;28;108740;-66
2023/10/19 13:39:36;;;;;;;7.10;6.50;;;;;;;19.95;43.19;94693.31;6211611;28;109179;-66
2023/10/19 13:42:42;;;;;;;6.43;5.88;;;;;;;19.94;42.93;94697.06;6217358;28;109147;-67
2023/10/19 13:45:49;;;;;;;6.38;5.78;;;;;;;19.94;43.08;94690.97;6216978;28;111062;-67
2023/10/19 13:48:54;;;;;;;7.50;6.90;;;;;;;19.92;42.97;94679.88;6202567;28;108905;-66
2023/10/19 13:51:58;;;;;;;6.70;6.10;;;;;;;19.94;43.36;94675.03;6213393;28;109556;-66
2023/10/19 13:55:01;;;;;;;6.50;6.00;;;;;;;19.93;43.27;94674.25;6211792;28;109321;-65
2023/10/19 13:58:06;;;;;;;6.70;6.10;;;;;;;19.94;43.35;94664.41;6206760;28;109584;-65
2023/10/19 14:01:11;;;;;;;6.93;6.23;;;;;;;19.93;43.46;94668.94;6205979;28;109530;-66
2023/10/19 14:04:19;;;;;;;6.32;5.82;;;;;;;19.95;43.79;94666.00;6211171;28;109114;-65
2023/10/19 14:07:23;;;;;;;6.30;5.70;;;;;;;19.95;43.65;94658.81;6210785;28;109493;-65
2023/10/19 14:10:27;;;;;;;7.10;6.10;;;;;;;19.97;44.06;94655.84;6200727;28;109673;-66
2023/10/19 14:13:31;;;;;;;6.40;5.80;;;;;;;19.95;44.13;94645.53;6210012;28;109283;-66